Fairplay, Maryland
Current Conditions -  °F | °C
As of 5:53 PM on Thursday 27 Nov 2014 (Local Time) from KHGR Reporting Station
Overcast Overcast  
Wind Chill: 30°   Ceiling: 7500
Heat Index: 37°   Visibility: 10mi
Dew Point: 27°   Wind: 9mph
Humidity: 67%   Direction: 290°WNW
Pressure: 30.09"   Gusts: NA
Location:  39.54°N, 77.75°W
Report Text: KHGR 272253Z 29008KT 10SM OVC075 03/M03 A3009 RMK AO2 SLP206 T00281028 $
Loading
Personal Weather Stations






























Interactive Weather Map New forecast layout! Learn more

10-Day Weather Forecast

Advertisements
Track Severe Weather on mobile